createdAt,value
2018-06-03T00:00:58.571Z,16.28
2018-06-03T00:02:21.208Z,16.24
2018-06-03T00:03:43.741Z,16.21
2018-06-03T00:05:05.882Z,16.26
2018-06-03T00:06:06.808Z,16.29
2018-06-03T00:07:05.711Z,16.32
2018-06-03T00:08:06.502Z,16.36
2018-06-03T00:09:06.253Z,16.38
2018-06-03T00:10:48.799Z,16.38
2018-06-03T00:11:49.734Z,16.38
2018-06-03T00:12:49.584Z,16.38
2018-06-03T00:13:49.441Z,16.36
2018-06-03T00:14:49.286Z,16.35
2018-06-03T00:15:48.684Z,16.36
2018-06-03T00:16:49.215Z,16.38
2018-06-03T00:17:50.122Z,16.39
2018-06-03T00:18:49.822Z,16.42
2018-06-03T00:19:49.583Z,16.42
2018-06-03T00:20:49.693Z,16.42
2018-06-03T00:21:49.565Z,16.46
2018-06-03T00:22:50.116Z,16.46
2018-06-03T00:23:48.735Z,16.49
2018-06-03T00:24:49.475Z,16.53
2018-06-03T00:25:49.347Z,16.54
2018-06-03T00:26:48.998Z,16.51
2018-06-03T00:27:50.389Z,16.51
2018-06-03T00:28:49.052Z,16.53
2018-06-03T00:29:49.923Z,16.57
2018-06-03T00:30:49.449Z,16.58
2018-06-03T00:31:49.221Z,16.60
2018-06-03T00:32:50.252Z,16.65
2018-06-03T00:34:31.990Z,16.66
2018-06-03T00:35:32.827Z,16.68
2018-06-03T00:36:32.259Z,16.68
2018-06-03T00:37:32.092Z,16.65
2018-06-03T00:38:32.554Z,16.66
2018-06-03T00:39:32.451Z,16.66
2018-06-03T00:40:32.940Z,16.65
2018-06-03T00:41:32.896Z,16.65
2018-06-03T00:42:32.644Z,16.65
2018-06-03T00:43:33.124Z,16.66
2018-06-03T00:44:53.295Z,16.69
2018-06-03T00:45:53.680Z,16.68
2018-06-03T00:46:54.147Z,16.68
2018-06-03T00:47:53.905Z,16.65
2018-06-03T00:48:53.404Z,16.65
2018-06-03T00:49:53.949Z,16.64
2018-06-03T00:50:53.773Z,16.61
2018-06-03T00:51:53.556Z,16.61
2018-06-03T00:52:54.487Z,16.61
2018-06-03T00:53:53.951Z,16.66
2018-06-03T00:54:53.558Z,16.69
2018-06-03T00:55:54.437Z,16.74
2018-06-03T00:56:54.273Z,16.74
2018-06-03T00:57:53.904Z,16.74
2018-06-03T00:58:53.331Z,16.74
2018-06-03T00:59:54.196Z,16.71
2018-06-03T01:00:53.755Z,16.72
2018-06-03T01:01:54.501Z,16.71
2018-06-03T01:02:54.140Z,16.71
2018-06-03T01:03:53.792Z,16.69
2018-06-03T01:04:53.467Z,16.71
2018-06-03T01:05:54.056Z,16.74
2018-06-03T01:06:54.981Z,16.72
2018-06-03T01:07:53.552Z,16.71
2018-06-03T01:08:54.353Z,16.69
2018-06-03T01:09:54.293Z,16.72
2018-06-03T01:10:54.124Z,16.68
2018-06-03T01:11:54.069Z,16.65
2018-06-03T01:12:53.868Z,16.65
2018-06-03T01:13:53.427Z,16.64
2018-06-03T01:15:15.787Z,16.61
2018-06-03T01:16:36.399Z,16.61
2018-06-03T01:17:36.800Z,16.58
2018-06-03T01:18:36.770Z,16.58
2018-06-03T01:19:38.315Z,16.56
2018-06-03T01:20:37.196Z,16.54
2018-06-03T01:21:37.050Z,16.54
2018-06-03T01:22:36.404Z,16.53
2018-06-03T01:23:36.950Z,16.50
2018-06-03T01:24:36.620Z,16.46
2018-06-03T01:25:37.434Z,16.42
2018-06-03T01:26:37.153Z,16.41
2018-06-03T01:28:20.460Z,16.36
2018-06-03T01:29:21.385Z,16.33
2018-06-03T01:30:42.788Z,16.31
2018-06-03T01:31:43.756Z,16.28
2018-06-03T01:32:42.674Z,16.26
2018-06-03T01:33:43.318Z,16.23
2018-06-03T01:34:43.603Z,16.23
2018-06-03T01:35:43.505Z,16.20
2018-06-03T01:36:43.256Z,16.17
2018-06-03T01:37:43.180Z,16.17
2018-06-03T01:38:43.117Z,16.17
2018-06-03T01:40:04.760Z,16.15
2018-06-03T01:41:04.302Z,16.16
2018-06-03T01:42:04.838Z,16.17
2018-06-03T01:43:04.570Z,16.21
2018-06-03T01:44:05.338Z,16.21
2018-06-03T01:45:04.895Z,16.23
2018-06-03T01:46:04.435Z,16.21
2018-06-03T01:47:05.380Z,16.20
2018-06-03T01:48:05.278Z,16.16
2018-06-03T01:49:26.501Z,16.13
2018-06-03T01:50:27.910Z,16.10
2018-06-03T01:51:27.987Z,16.09
2018-06-03T01:52:26.647Z,16.05
2018-06-03T01:53:26.354Z,16.02
2018-06-03T01:54:26.831Z,16.00
2018-06-03T01:55:26.365Z,16.02
2018-06-03T01:56:26.916Z,16.00
2018-06-03T01:57:26.840Z,16.00
2018-06-03T01:58:26.768Z,15.94
2018-06-03T01:59:26.439Z,15.91
2018-06-03T02:00:27.157Z,15.88
2018-06-03T02:01:27.546Z,15.88
2018-06-03T02:02:27.583Z,15.88
2018-06-03T02:03:27.049Z,15.92
2018-06-03T02:04:26.561Z,15.91
2018-06-03T02:05:27.183Z,15.92
2018-06-03T02:06:27.221Z,15.91
2018-06-03T02:07:26.844Z,15.88
2018-06-03T02:08:26.479Z,15.83
2018-06-03T02:09:26.374Z,15.80
2018-06-03T02:10:27.430Z,15.77
2018-06-03T02:11:27.715Z,15.75
2018-06-03T02:12:27.143Z,15.73
2018-06-03T02:13:27.450Z,15.72
2018-06-03T02:14:49.138Z,15.67
2018-06-03T02:15:49.887Z,15.61
2018-06-03T02:16:49.488Z,15.57
2018-06-03T02:17:50.071Z,15.52
2018-06-03T02:18:49.864Z,15.52
2018-06-03T02:19:49.465Z,15.52
2018-06-03T02:20:50.128Z,15.49
2018-06-03T02:21:53.819Z,15.47
2018-06-03T02:22:49.695Z,15.47
2018-06-03T02:23:49.384Z,15.44
2018-06-03T02:24:50.124Z,15.44
2018-06-03T02:25:51.181Z,15.47
2018-06-03T02:26:50.254Z,15.47
2018-06-03T02:27:49.794Z,15.44
2018-06-03T02:28:50.262Z,15.44
2018-06-03T02:29:50.224Z,15.44
2018-06-03T02:30:50.637Z,15.46
2018-06-03T02:31:50.133Z,15.46
2018-06-03T02:32:50.842Z,15.46
2018-06-03T02:33:50.199Z,15.47
2018-06-03T02:34:50.743Z,15.43
2018-06-03T02:35:49.241Z,15.43
2018-06-03T02:36:50.483Z,15.42
2018-06-03T02:37:54.637Z,15.43
2018-06-03T02:38:49.088Z,15.42
2018-06-03T02:39:49.714Z,15.40
2018-06-03T02:40:49.234Z,15.36
2018-06-03T02:41:49.788Z,15.33
2018-06-03T02:42:49.463Z,15.28
2018-06-03T02:43:49.870Z,15.22
2018-06-03T02:44:49.704Z,15.19
2018-06-03T02:45:49.664Z,15.18
2018-06-03T02:46:49.208Z,15.18
2018-06-03T02:47:49.604Z,15.19
2018-06-03T02:48:49.314Z,15.19
2018-06-03T02:49:49.894Z,15.19
2018-06-03T02:50:49.792Z,15.19
2018-06-03T02:52:54.234Z,15.25
2018-06-03T02:53:54.888Z,15.28
2018-06-03T02:54:54.822Z,15.29
2018-06-03T02:55:54.747Z,15.31
2018-06-03T02:56:55.265Z,15.29
2018-06-03T02:57:54.974Z,15.31
2018-06-03T02:58:54.967Z,15.33
2018-06-03T02:59:54.723Z,15.35
2018-06-03T03:00:54.545Z,15.37
2018-06-03T03:01:54.162Z,15.37
2018-06-03T03:02:54.812Z,15.42
2018-06-03T03:03:55.021Z,15.43
2018-06-03T03:04:54.752Z,15.44
2018-06-03T03:05:54.776Z,15.47
2018-06-03T03:06:54.431Z,15.49
2018-06-03T03:07:53.993Z,15.51
2018-06-03T03:08:54.778Z,15.54
2018-06-03T03:09:54.693Z,15.55
2018-06-03T03:10:54.325Z,15.57
2018-06-03T03:11:55.031Z,15.59
2018-06-03T03:12:54.851Z,15.61
2018-06-03T03:13:54.781Z,15.62
2018-06-03T03:14:54.564Z,15.64
2018-06-03T03:15:54.143Z,15.65
2018-06-03T03:16:54.835Z,15.65
2018-06-03T03:17:54.707Z,15.67
2018-06-03T03:18:54.337Z,15.67
2018-06-03T03:19:54.175Z,15.70
2018-06-03T03:20:54.585Z,15.67
2018-06-03T03:21:54.160Z,15.68
2018-06-03T03:23:16.568Z,15.67
2018-06-03T03:25:21.766Z,15.73
2018-06-03T03:26:22.535Z,15.73
2018-06-03T03:27:22.229Z,15.75
2018-06-03T03:28:22.213Z,15.76
2018-06-03T03:29:21.843Z,15.77
2018-06-03T03:30:22.725Z,15.79
2018-06-03T03:31:22.680Z,15.77
2018-06-03T03:32:22.405Z,15.76
2018-06-03T03:33:22.147Z,15.77
2018-06-03T03:34:23.120Z,15.79
2018-06-03T03:35:22.141Z,15.80
2018-06-03T03:36:21.876Z,15.84
2018-06-03T03:37:22.508Z,15.86
2018-06-03T03:38:22.326Z,15.86
2018-06-03T03:39:21.895Z,15.86
2018-06-03T03:40:22.888Z,15.90
2018-06-03T03:41:22.633Z,15.90
2018-06-03T03:42:22.426Z,15.88
2018-06-03T03:43:21.997Z,15.88
2018-06-03T03:44:22.539Z,15.88
2018-06-03T03:45:22.044Z,15.88
2018-06-03T03:46:22.643Z,15.88
2018-06-03T03:47:22.381Z,15.90
2018-06-03T03:48:22.378Z,15.91
2018-06-03T03:49:22.414Z,15.90
2018-06-03T03:50:22.988Z,15.91
2018-06-03T03:51:22.958Z,15.94
2018-06-03T03:52:22.525Z,15.95
2018-06-03T03:53:22.542Z,15.95
2018-06-03T03:54:22.259Z,15.98
2018-06-03T03:55:22.052Z,15.98
2018-06-03T03:56:22.528Z,15.98
2018-06-03T03:57:22.600Z,16.00
2018-06-03T03:58:22.365Z,16.00
2018-06-03T03:59:21.967Z,16.02
2018-06-03T04:00:22.872Z,16.05
2018-06-03T04:01:22.782Z,16.10
2018-06-03T04:03:50.077Z,16.15
2018-06-03T04:05:11.345Z,16.17
2018-06-03T04:06:11.388Z,16.20
2018-06-03T04:07:11.941Z,16.23
2018-06-03T04:08:11.785Z,16.26
2018-06-03T04:09:11.623Z,16.29
2018-06-03T04:10:32.945Z,16.31
2018-06-03T04:11:33.640Z,16.32
2018-06-03T04:12:33.545Z,16.33
2018-06-03T04:13:54.676Z,16.32
2018-06-03T04:14:54.596Z,16.32
2018-06-03T04:15:55.734Z,16.32
2018-06-03T04:16:55.788Z,16.32
2018-06-03T04:17:55.350Z,16.35
2018-06-03T04:18:54.894Z,16.38
2018-06-03T04:19:54.511Z,16.41
2018-06-03T04:21:16.506Z,16.43
2018-06-03T04:22:39.274Z,16.47
2018-06-03T04:23:40.089Z,16.50
2018-06-03T04:24:39.938Z,16.53
2018-06-03T04:25:39.878Z,16.56
2018-06-03T04:26:39.592Z,16.57
2018-06-03T04:27:39.476Z,16.57
2018-06-03T04:28:39.084Z,16.57
2018-06-03T04:30:23.191Z,16.60
2018-06-03T04:31:44.426Z,16.64
2018-06-03T04:32:44.975Z,16.68
2018-06-03T04:33:44.733Z,16.71
2018-06-03T04:34:44.361Z,16.75
2018-06-03T04:35:45.060Z,16.78
2018-06-03T04:36:45.086Z,16.84
2018-06-03T04:37:44.936Z,16.83
2018-06-03T04:38:44.640Z,16.87
2018-06-03T04:39:45.313Z,16.90
2018-06-03T04:40:44.946Z,16.93
2018-06-03T04:41:44.652Z,16.96
2018-06-03T04:42:46.169Z,17.01
2018-06-03T04:43:45.832Z,17.04
2018-06-03T04:44:45.016Z,17.06
2018-06-03T04:45:44.719Z,17.09
2018-06-03T04:46:45.613Z,17.11
2018-06-03T04:47:45.410Z,17.12
2018-06-03T04:48:45.232Z,17.12
2018-06-03T04:49:44.949Z,17.11
2018-06-03T04:50:44.783Z,17.11
2018-06-03T04:51:44.612Z,17.14
2018-06-03T04:52:45.256Z,17.14
2018-06-03T04:53:45.090Z,17.14
2018-06-03T04:54:44.912Z,17.15
2018-06-03T04:55:44.918Z,17.16
2018-06-03T04:57:06.807Z,17.15
2018-06-03T04:58:06.779Z,17.16
2018-06-03T04:59:07.449Z,17.16
2018-06-03T05:00:07.649Z,17.20
2018-06-03T05:01:06.849Z,17.19
2018-06-03T05:02:28.181Z,17.22
2018-06-03T05:03:29.208Z,17.24
2018-06-03T05:04:29.965Z,17.26
2018-06-03T05:05:28.996Z,17.26
2018-06-03T05:06:28.805Z,17.27
2018-06-03T05:07:28.818Z,17.27
2018-06-03T05:08:29.657Z,17.24
2018-06-03T05:09:28.670Z,17.27
2018-06-03T05:10:28.773Z,17.30
2018-06-03T05:11:28.745Z,17.31
2018-06-03T05:12:28.724Z,17.33
2018-06-03T05:13:28.667Z,17.34
2018-06-03T05:14:28.463Z,17.34
2018-06-03T05:15:28.636Z,17.36
2018-06-03T05:16:29.155Z,17.36
2018-06-03T05:17:28.852Z,17.38
2018-06-03T05:18:50.434Z,17.41
2018-06-03T05:19:50.393Z,17.42
2018-06-03T05:20:50.412Z,17.46
2018-06-03T05:22:11.735Z,17.49
2018-06-03T05:23:12.539Z,17.49
2018-06-03T05:24:12.555Z,17.54
2018-06-03T05:25:12.569Z,17.57
2018-06-03T05:26:12.376Z,17.60
2018-06-03T05:27:12.471Z,17.60
2018-06-03T05:28:33.711Z,17.64
2018-06-03T05:29:34.841Z,17.65
2018-06-03T05:30:34.119Z,17.67
2018-06-03T05:31:33.854Z,17.68
2018-06-03T05:32:35.042Z,17.71
2018-06-03T05:33:34.091Z,17.70
2018-06-03T05:34:56.007Z,17.72
2018-06-03T05:35:56.759Z,17.76
2018-06-03T05:36:56.598Z,17.74
2018-06-03T05:38:06.935Z,17.76
2018-06-03T05:38:55.797Z,17.79
2018-06-03T05:39:56.648Z,17.79
2018-06-03T05:40:56.753Z,17.79
2018-06-03T05:42:18.619Z,17.79
2018-06-03T05:43:19.546Z,17.82
2018-06-03T05:44:19.582Z,17.79
2018-06-03T05:45:19.336Z,17.78
2018-06-03T05:46:19.321Z,17.74
2018-06-03T05:47:19.667Z,17.76
2018-06-03T05:48:18.887Z,17.78
2018-06-03T05:49:18.744Z,17.80
2018-06-03T05:50:19.004Z,17.82
2018-06-03T05:51:19.523Z,17.86
2018-06-03T05:52:19.521Z,17.92
2018-06-03T05:53:19.420Z,17.97
2018-06-03T05:54:19.242Z,18.01
2018-06-03T05:55:18.928Z,18.04
2018-06-03T05:56:18.839Z,18.10
2018-06-03T05:57:18.725Z,18.13
2018-06-03T05:58:19.388Z,18.19
2018-06-03T05:59:19.289Z,18.22
2018-06-03T06:00:19.005Z,18.26
2018-06-03T06:01:19.022Z,18.28
2018-06-03T06:02:49.532Z,18.31
2018-06-03T06:03:49.429Z,18.31
2018-06-03T06:04:49.040Z,18.33
2018-06-03T06:05:49.867Z,18.35
2018-06-03T06:06:50.149Z,18.35
2018-06-03T06:07:50.329Z,18.28
2018-06-03T06:08:49.552Z,18.29
2018-06-03T06:10:11.391Z,18.33
2018-06-03T06:11:11.264Z,18.31
2018-06-03T06:12:12.499Z,18.29
2018-06-03T06:13:33.018Z,18.28
2018-06-03T06:14:55.707Z,18.31
2018-06-03T06:15:56.856Z,18.35
2018-06-03T06:16:56.710Z,18.43
2018-06-03T06:17:57.639Z,18.45
2018-06-03T06:18:56.716Z,18.47
2018-06-03T06:19:56.345Z,18.47
2018-06-03T06:20:56.240Z,18.52
2018-06-03T06:21:56.514Z,18.55
2018-06-03T06:22:56.385Z,18.58
2018-06-03T06:24:18.018Z,18.60
2018-06-03T06:25:19.203Z,18.65
2018-06-03T06:26:18.441Z,18.65
2018-06-03T06:27:18.174Z,18.65
2018-06-03T06:28:18.443Z,18.65
2018-06-03T06:29:18.442Z,18.68
2018-06-03T06:30:18.423Z,18.65
2018-06-03T06:31:18.155Z,18.70
2018-06-03T06:32:19.233Z,18.73
2018-06-03T06:33:18.290Z,18.77
2018-06-03T06:34:18.121Z,18.77
2018-06-03T06:35:19.153Z,18.83
2018-06-03T06:36:18.248Z,18.86
2018-06-03T06:37:19.904Z,18.88
2018-06-03T06:38:19.293Z,18.88
2018-06-03T06:39:18.555Z,18.86
2018-06-03T06:40:18.591Z,18.89
2018-06-03T06:41:18.887Z,18.93
2018-06-03T06:42:18.977Z,19.00
2018-06-03T06:43:40.518Z,19.00
2018-06-03T06:44:41.726Z,19.07
2018-06-03T06:45:40.679Z,19.08
2018-06-03T06:46:40.783Z,19.00
2018-06-03T06:47:40.723Z,19.02
2018-06-03T06:48:40.846Z,19.08
2018-06-03T06:49:40.559Z,19.11
2018-06-03T06:50:41.789Z,19.12
2018-06-03T06:52:26.214Z,19.16
2018-06-03T06:53:27.228Z,19.18
2018-06-03T06:54:26.890Z,19.24
2018-06-03T06:55:26.920Z,19.30
2018-06-03T06:56:26.678Z,19.34
2018-06-03T06:57:26.732Z,19.40
2018-06-03T06:58:27.565Z,19.41
2018-06-03T06:59:26.475Z,19.39
2018-06-03T07:00:26.253Z,19.41
2018-06-03T07:02:10.100Z,19.52
2018-06-03T07:03:10.274Z,19.55
2018-06-03T07:04:31.771Z,19.64
2018-06-03T07:05:32.693Z,19.70
2018-06-03T07:06:31.753Z,19.79
2018-06-03T07:07:33.317Z,19.86
2018-06-03T07:08:32.122Z,19.96
2018-06-03T07:09:31.791Z,20.04
2018-06-03T07:10:31.756Z,20.11
2018-06-03T07:11:32.714Z,20.18
2018-06-03T07:12:32.436Z,20.29
2018-06-03T07:13:54.111Z,20.39
2018-06-03T07:14:54.771Z,20.36
2018-06-03T07:15:55.515Z,20.28
2018-06-03T07:16:54.405Z,20.31
2018-06-03T07:17:54.271Z,20.28
2018-06-03T07:18:54.218Z,20.18
2018-06-03T07:19:54.978Z,20.13
2018-06-03T07:20:54.610Z,20.18
2018-06-03T07:21:54.627Z,20.26
2018-06-03T07:22:54.257Z,20.36
2018-06-03T07:23:54.088Z,20.37
2018-06-03T07:25:15.667Z,20.52
2018-06-03T07:26:16.721Z,20.66
2018-06-03T07:27:38.677Z,20.70
2018-06-03T07:28:39.379Z,20.80
2018-06-03T07:29:40.250Z,20.82
2018-06-03T07:30:39.343Z,20.75
2018-06-03T07:31:38.954Z,20.69
2018-06-03T07:32:39.949Z,20.69
2018-06-03T07:34:01.150Z,20.80
2018-06-03T07:35:02.231Z,20.88
2018-06-03T07:36:02.150Z,20.97
2018-06-03T07:37:23.548Z,21.00
2018-06-03T07:38:23.733Z,20.93
2018-06-03T07:39:24.243Z,21.02
2018-06-03T07:40:25.133Z,21.21
2018-06-03T07:41:24.133Z,21.24
2018-06-03T07:42:24.001Z,21.33
2018-06-03T07:43:45.462Z,21.46
2018-06-03T07:44:45.300Z,21.58
2018-06-03T07:45:46.207Z,21.76
2018-06-03T07:46:46.117Z,21.80
2018-06-03T07:47:45.987Z,21.79
2018-06-03T07:48:46.180Z,21.82
2018-06-03T07:49:46.055Z,21.98
2018-06-03T07:50:46.115Z,22.07
2018-06-03T07:51:46.327Z,22.22
2018-06-03T07:52:46.049Z,22.28
2018-06-03T07:53:45.957Z,22.35
2018-06-03T07:54:46.098Z,22.44
2018-06-03T07:55:45.874Z,22.55
2018-06-03T07:56:45.708Z,22.62
2018-06-03T07:57:45.850Z,22.69
2018-06-03T07:58:45.851Z,22.78
2018-06-03T07:59:45.657Z,22.90
2018-06-03T08:00:46.651Z,22.94
2018-06-03T08:01:45.643Z,23.03
2018-06-03T08:02:45.832Z,23.13
2018-06-03T08:03:46.399Z,23.17
2018-06-03T08:05:08.049Z,23.10
2018-06-03T08:06:30.545Z,22.91
2018-06-03T08:07:30.773Z,22.81
2018-06-03T08:08:30.898Z,22.68
2018-06-03T08:09:29.789Z,22.59
2018-06-03T08:10:31.011Z,22.51
2018-06-03T08:11:32.250Z,22.45
2018-06-03T08:12:30.649Z,22.38
2018-06-03T08:13:31.568Z,22.35
2018-06-03T08:14:30.826Z,22.29
2018-06-03T08:15:31.934Z,22.23
2018-06-03T08:16:31.182Z,22.11
2018-06-03T08:17:31.357Z,21.98
2018-06-03T08:18:30.192Z,21.95
2018-06-03T08:19:30.086Z,21.91
2018-06-03T08:20:30.971Z,21.87
2018-06-03T08:21:29.941Z,21.89
2018-06-03T08:22:29.917Z,21.92
2018-06-03T08:24:13.686Z,21.92
2018-06-03T08:25:36.578Z,21.91
2018-06-03T08:26:36.627Z,21.87
2018-06-03T08:27:58.066Z,21.91
2018-06-03T08:29:00.078Z,21.93
2018-06-03T08:29:58.971Z,21.96
2018-06-03T08:31:00.424Z,21.95
2018-06-03T08:32:20.927Z,21.98
2018-06-03T08:33:21.846Z,22.02
2018-06-03T08:34:22.631Z,22.02
2018-06-03T08:36:07.334Z,22.02
2018-06-03T08:37:06.750Z,22.07
2018-06-03T08:38:06.860Z,22.15
2018-06-03T08:39:28.752Z,22.15
2018-06-03T08:40:28.730Z,22.13
2018-06-03T08:41:28.898Z,22.13
2018-06-03T08:42:51.298Z,22.10
2018-06-03T08:43:51.580Z,22.14
2018-06-03T08:44:52.003Z,22.13
2018-06-03T08:45:50.734Z,22.13
2018-06-03T08:46:50.550Z,22.08
2018-06-03T08:47:50.331Z,22.00
2018-06-03T08:49:12.656Z,21.95
2018-06-03T08:50:13.649Z,21.91
2018-06-03T08:51:13.372Z,21.83
2018-06-03T08:52:23.906Z,21.80
2018-06-03T08:53:13.980Z,21.75
2018-06-03T08:54:13.524Z,21.70
2018-06-03T08:55:52.785Z,21.64
2018-06-03T08:56:46.310Z,21.66
2018-06-03T08:57:45.884Z,21.70
2018-06-03T08:58:50.883Z,21.70
2018-06-03T08:59:46.273Z,21.67
2018-06-03T09:00:47.320Z,21.61
2018-06-03T09:01:45.702Z,21.62
2018-06-03T09:02:45.708Z,21.67
2018-06-03T09:03:45.361Z,21.60
2018-06-03T09:04:46.392Z,21.58
2018-06-03T09:06:08.431Z,21.64
2018-06-03T09:07:52.976Z,21.79
2018-06-03T09:08:53.729Z,21.82
2018-06-03T09:09:53.829Z,21.91
2018-06-03T09:10:52.858Z,21.95
2018-06-03T09:11:52.790Z,22.00
2018-06-03T09:12:52.781Z,22.06
2018-06-03T09:13:52.873Z,22.18
2018-06-03T09:14:53.168Z,22.28
2018-06-03T09:16:16.499Z,22.36
2018-06-03T09:17:15.527Z,22.43
2018-06-03T09:18:15.723Z,22.48
2018-06-03T09:19:38.430Z,22.53
2018-06-03T09:20:37.805Z,22.53
2018-06-03T09:21:39.179Z,22.50
2018-06-03T09:22:59.253Z,22.48
2018-06-03T09:24:00.710Z,22.51
2018-06-03T09:25:00.555Z,22.57
2018-06-03T09:26:00.030Z,22.60
2018-06-03T09:26:59.880Z,22.62
2018-06-03T09:28:00.023Z,22.57
2018-06-03T09:29:00.125Z,22.57
2018-06-03T09:30:00.298Z,22.53
2018-06-03T09:30:59.048Z,22.51
2018-06-03T09:32:00.187Z,22.55
2018-06-03T09:32:59.251Z,22.53
2018-06-03T09:33:59.136Z,22.59
2018-06-03T09:35:23.952Z,22.62
2018-06-03T09:36:22.181Z,22.65
2018-06-03T09:37:23.676Z,22.70
2018-06-03T09:38:22.944Z,22.78
2018-06-03T09:39:57.054Z,22.88
2018-06-03T09:40:57.068Z,22.87
2018-06-03T09:41:57.908Z,22.93
2018-06-03T09:42:57.671Z,23.03
2018-06-03T09:43:58.391Z,23.08
2018-06-03T09:44:57.567Z,23.10
2018-06-03T09:45:57.609Z,23.13
2018-06-03T09:46:57.940Z,23.28
2018-06-03T09:47:57.239Z,23.41
2018-06-03T09:49:18.984Z,23.71
2018-06-03T09:50:41.724Z,23.96
2018-06-03T09:52:04.598Z,24.48
2018-06-03T09:53:04.738Z,24.80
2018-06-03T09:54:08.783Z,25.01
2018-06-03T09:55:04.824Z,25.17
2018-06-03T09:56:28.592Z,25.54
2018-06-03T09:57:28.709Z,25.81
2018-06-03T09:58:28.619Z,26.07
2018-06-03T09:59:30.008Z,26.29
2018-06-03T10:00:28.960Z,26.40
2018-06-03T10:01:29.233Z,26.45
2018-06-03T10:02:29.595Z,26.47
2018-06-03T10:03:28.844Z,26.53
2018-06-03T10:04:28.788Z,26.53
2018-06-03T10:05:28.980Z,26.56
2018-06-03T10:06:29.029Z,26.47
2018-06-03T10:07:29.165Z,26.38
2018-06-03T10:08:29.558Z,26.29
2018-06-03T10:09:29.245Z,25.90
2018-06-03T10:10:30.015Z,25.72
2018-06-03T10:11:30.094Z,25.73
2018-06-03T10:12:29.136Z,25.80
2018-06-03T10:13:30.616Z,25.81
2018-06-03T10:14:29.521Z,25.77
2018-06-03T10:15:29.314Z,25.73
2018-06-03T10:16:29.206Z,25.80
2018-06-03T10:17:29.183Z,25.81
2018-06-03T10:18:28.907Z,25.78
2018-06-03T10:19:28.998Z,25.83
2018-06-03T10:20:40.459Z,25.88
2018-06-03T10:21:37.076Z,25.98
2018-06-03T10:22:30.351Z,26.03
2018-06-03T10:23:57.120Z,25.87
2018-06-03T10:25:01.910Z,25.85
2018-06-03T10:25:57.523Z,25.90
2018-06-03T10:26:56.631Z,26.03
2018-06-03T10:27:58.085Z,26.13
2018-06-03T10:29:06.272Z,26.25
2018-06-03T10:29:59.337Z,26.33
2018-06-03T10:30:58.948Z,26.38
2018-06-03T10:31:57.109Z,26.48
2018-06-03T10:32:57.404Z,26.23
2018-06-03T10:34:26.248Z,26.29
2018-06-03T10:35:19.335Z,26.48
2018-06-03T10:37:07.363Z,26.66
2018-06-03T10:38:11.069Z,26.73
2018-06-03T10:39:14.200Z,26.74
2018-06-03T10:40:11.659Z,26.71
2018-06-03T10:41:04.104Z,26.70
2018-06-03T10:42:40.433Z,26.59
2018-06-03T10:44:06.529Z,26.43
2018-06-03T10:45:13.573Z,26.19
2018-06-03T10:46:14.800Z,26.18
2018-06-03T10:47:15.768Z,26.16
2018-06-03T10:48:07.562Z,26.26
2018-06-03T10:49:34.703Z,26.29
2018-06-03T10:50:33.049Z,26.28
2018-06-03T10:51:33.454Z,26.22
2018-06-03T10:52:32.513Z,26.22
2018-06-03T10:53:54.064Z,26.00
2018-06-03T10:54:56.454Z,25.81
2018-06-03T10:56:20.090Z,25.62
2018-06-03T10:57:19.102Z,25.55
2018-06-03T10:58:19.312Z,25.43
2018-06-03T10:59:19.062Z,25.32
2018-06-03T11:00:29.133Z,25.28
2018-06-03T11:01:21.339Z,25.25
2018-06-03T11:02:20.018Z,25.29
2018-06-03T11:03:21.180Z,25.35
2018-06-03T11:04:20.912Z,25.32
2018-06-03T11:05:19.321Z,25.32
2018-06-03T11:06:21.535Z,25.33
2018-06-03T11:07:20.015Z,25.31
2018-06-03T11:08:21.693Z,25.40
2018-06-03T11:09:19.135Z,25.44
2018-06-03T11:10:19.452Z,25.62
2018-06-03T11:11:19.762Z,25.70
2018-06-03T11:12:18.858Z,25.99
2018-06-03T11:13:21.018Z,26.26
2018-06-03T11:14:20.839Z,26.51
2018-06-03T11:15:19.048Z,26.88
2018-06-03T11:16:22.284Z,27.05
2018-06-03T11:17:24.403Z,27.15
2018-06-03T11:18:19.130Z,27.29
2018-06-03T11:19:19.343Z,27.47
2018-06-03T11:20:19.516Z,27.54
2018-06-03T11:21:40.116Z,27.70
2018-06-03T11:22:40.008Z,27.67
2018-06-03T11:23:41.715Z,27.70
2018-06-03T11:24:41.936Z,27.87
2018-06-03T11:25:40.612Z,28.04
2018-06-03T11:26:41.007Z,28.19
2018-06-03T11:27:41.068Z,28.32
2018-06-03T11:28:40.339Z,28.32
2018-06-03T11:29:40.768Z,28.19
2018-06-03T11:30:41.105Z,28.12
2018-06-03T11:31:40.087Z,28.07
2018-06-03T11:32:41.425Z,28.08
2018-06-03T11:33:40.358Z,28.00
2018-06-03T11:34:40.607Z,27.80
2018-06-03T11:35:40.792Z,27.51
2018-06-03T11:36:40.495Z,27.18
2018-06-03T11:37:40.387Z,27.08
2018-06-03T11:38:40.941Z,27.02
2018-06-03T11:39:40.161Z,26.89
2018-06-03T11:40:40.009Z,26.80
2018-06-03T11:41:40.324Z,26.73
2018-06-03T11:42:40.283Z,26.71
2018-06-03T11:44:01.784Z,26.58
2018-06-03T11:45:03.894Z,26.33
2018-06-03T11:46:02.784Z,26.19
2018-06-03T11:47:03.052Z,26.16
2018-06-03T11:48:45.074Z,26.09
2018-06-03T11:49:45.983Z,26.03
2018-06-03T11:50:46.007Z,25.99
2018-06-03T11:51:45.905Z,26.00
2018-06-03T11:52:46.375Z,25.98
2018-06-03T11:53:45.931Z,25.96
2018-06-03T11:54:47.004Z,25.93
2018-06-03T11:55:46.915Z,25.95
2018-06-03T11:57:07.652Z,26.03
2018-06-03T11:58:10.053Z,25.98
2018-06-03T11:59:09.163Z,25.98
2018-06-03T12:00:09.449Z,26.02
2018-06-03T12:01:08.875Z,26.07
2018-06-03T12:02:08.843Z,26.03
2018-06-03T12:03:10.384Z,26.03
2018-06-03T12:04:33.837Z,26.07
2018-06-03T12:05:33.493Z,26.05
2018-06-03T12:06:33.487Z,26.00
2018-06-03T12:07:56.738Z,25.84
2018-06-03T12:08:58.459Z,25.84
2018-06-03T12:09:57.391Z,25.77
2018-06-03T12:10:59.266Z,25.78
2018-06-03T12:11:57.280Z,25.78
2018-06-03T12:12:57.818Z,25.68
2018-06-03T12:13:57.533Z,25.63
2018-06-03T12:14:56.745Z,25.72
2018-06-03T12:15:56.679Z,25.81
2018-06-03T12:16:58.365Z,25.85
2018-06-03T12:18:20.104Z,25.85
2018-06-03T12:19:20.291Z,25.93
2018-06-03T12:20:20.228Z,25.91
2018-06-03T12:21:21.094Z,25.83
2018-06-03T12:22:20.794Z,25.98
2018-06-03T12:23:20.897Z,26.10
2018-06-03T12:24:21.503Z,26.15
2018-06-03T12:25:22.042Z,26.06
2018-06-03T12:27:10.623Z,26.03
2018-06-03T12:28:34.072Z,26.06
2018-06-03T12:29:57.396Z,26.10
2018-06-03T12:30:56.636Z,26.22
2018-06-03T12:31:56.948Z,26.29
2018-06-03T12:32:56.768Z,26.41
2018-06-03T12:34:20.814Z,26.53
2018-06-03T12:35:21.166Z,26.70
2018-06-03T12:36:21.185Z,26.75
2018-06-03T12:37:21.289Z,26.73
2018-06-03T12:38:22.931Z,26.78
2018-06-03T12:39:21.979Z,26.81
2018-06-03T12:40:21.899Z,26.80
2018-06-03T12:41:22.349Z,26.58
2018-06-03T12:42:47.255Z,26.55
2018-06-03T12:43:46.863Z,26.51
2018-06-03T12:44:45.869Z,26.45
2018-06-03T12:45:46.300Z,26.51
2018-06-03T12:46:45.642Z,26.53
2018-06-03T12:48:08.965Z,26.56
2018-06-03T12:49:09.173Z,26.55
2018-06-03T12:50:09.005Z,26.56
2018-06-03T12:51:10.121Z,26.53
2018-06-03T12:52:10.518Z,26.52
2018-06-03T12:53:09.493Z,26.47
2018-06-03T12:54:10.392Z,26.40
2018-06-03T12:55:09.910Z,26.38
2018-06-03T12:56:09.597Z,26.31
2018-06-03T12:57:10.378Z,26.21
2018-06-03T12:58:36.841Z,26.09
2018-06-03T12:59:38.343Z,26.10
2018-06-03T13:00:36.699Z,26.19
2018-06-03T13:01:37.380Z,26.29
2018-06-03T13:02:37.378Z,26.19
2018-06-03T13:03:36.598Z,26.16
2018-06-03T13:04:37.332Z,26.06
2018-06-03T13:05:36.623Z,26.13
2018-06-03T13:06:36.863Z,26.22
2018-06-03T13:07:37.360Z,26.37
2018-06-03T13:08:36.107Z,26.48
2018-06-03T13:09:38.398Z,26.59
2018-06-03T13:10:37.136Z,26.63
2018-06-03T13:11:36.991Z,26.74
2018-06-03T13:12:37.251Z,26.84
2018-06-03T13:13:36.554Z,26.90
2018-06-03T13:14:36.280Z,26.84
2018-06-03T13:15:37.529Z,26.84
2018-06-03T13:16:57.981Z,26.89
2018-06-03T13:17:59.012Z,26.93
2018-06-03T13:18:58.497Z,26.97
2018-06-03T13:20:00.760Z,27.10
2018-06-03T13:20:58.785Z,27.05
2018-06-03T13:22:02.129Z,27.03
2018-06-03T13:22:58.587Z,27.10
2018-06-03T13:24:08.636Z,27.20
2018-06-03T13:25:06.723Z,27.27
2018-06-03T13:26:00.944Z,27.30
2018-06-03T13:27:00.540Z,27.10
2018-06-03T13:28:03.074Z,27.07
2018-06-03T13:29:01.460Z,27.10
2018-06-03T13:30:23.827Z,27.29
2018-06-03T13:31:23.086Z,27.33
2018-06-03T13:32:29.023Z,27.29
2018-06-03T13:33:24.348Z,27.35
2018-06-03T13:34:23.694Z,27.39
2018-06-03T13:35:24.756Z,27.40